Time;durP1;ratioP1;P1;durP2;ratioP2;P2;SDS_P1;SDS_P2;PMS_P1;PMS_P2;Temp;Humidity;BMP_temperature;BMP_pressure;BME280_temperature;BME280_humidity;BME280_pressure;Samples;Min_cycle;Max_cycle;Signal;HPM_P1;HPM_P2
2022/01/04 00:00:11;;;;;;;0.88;0.50;;;11.60;96.00;;;;;;6204562;28;20053;-79
2022/01/04 00:03:15;;;;;;;2.08;0.70;;;11.60;96.20;;;;;;6204258;28;20061;-80
2022/01/04 00:06:16;;;;;;;1.48;0.60;;;11.60;96.20;;;;;;6204223;28;20066;-79
2022/01/04 00:09:18;;;;;;;0.90;0.60;;;11.50;96.40;;;;;;6205118;28;20503;-79
2022/01/04 00:15:43;;;;;;;2.65;0.98;;;11.50;96.60;;;;;;6203323;28;20046;-78
2022/01/04 00:18:47;;;;;;;2.20;0.60;;;11.60;96.40;;;;;;6205065;28;20197;-79
2022/01/04 00:21:48;;;;;;;5.50;0.88;;;11.50;96.30;;;;;;6204484;28;20518;-79
2022/01/04 00:24:50;;;;;;;4.10;1.23;;;11.50;96.10;;;;;;6204493;28;20046;-79
2022/01/04 00:27:52;;;;;;;2.72;1.08;;;11.50;96.10;;;;;;6204440;28;20050;-79
2022/01/04 00:30:54;;;;;;;1.33;1.08;;;11.50;96.20;;;;;;6206558;28;20053;-79
2022/01/04 00:33:57;;;;;;;4.30;1.02;;;11.50;96.30;;;;;;6204421;28;20582;-79
2022/01/04 00:36:59;;;;;;;4.15;1.73;;;11.50;96.40;;;;;;6204583;28;20047;-79
2022/01/04 00:40:00;;;;;;;2.03;0.60;;;11.60;96.50;;;;;;6203652;28;20042;-78
2022/01/04 00:43:03;;;;;;;3.55;1.00;;;11.60;96.10;;;;;;6204297;28;20058;-79
2022/01/04 00:46:05;;;;;;;4.95;0.88;;;11.50;96.20;;;;;;6210635;28;20050;-78
2022/01/04 00:49:11;;;;;;;3.70;1.05;;;11.50;96.40;;;;;;6210356;28;20050;-78
2022/01/04 00:52:16;;;;;;;3.35;0.75;;;11.50;96.30;;;;;;6203556;28;20415;-79
2022/01/04 00:55:18;;;;;;;2.92;1.13;;;11.40;96.10;;;;;;6216918;28;20121;-79
2022/01/04 00:58:20;;;;;;;2.10;1.08;;;11.40;96.50;;;;;;6227952;28;20078;-78
2022/01/04 01:01:22;;;;;;;3.17;1.08;;;11.40;96.40;;;;;;6226271;28;20046;-78
2022/01/04 01:04:25;;;;;;;4.72;0.95;;;11.40;96.30;;;;;;6227059;28;20041;-78
2022/01/04 01:07:27;;;;;;;1.58;0.90;;;11.40;96.40;;;;;;6227787;28;20054;-78
2022/01/04 01:13:48;;;;;;;1.17;0.60;;;11.40;96.50;;;;;;6224555;28;20514;-77
2022/01/04 01:16:49;;;;;;;2.53;1.13;;;11.40;96.60;;;;;;6226140;28;20129;-78
2022/01/04 01:19:53;;;;;;;2.90;1.00;;;11.40;96.30;;;;;;6227113;28;20053;-78
2022/01/04 01:22:54;;;;;;;2.25;0.93;;;11.40;96.60;;;;;;6228246;28;20056;-78
2022/01/04 01:25:57;;;;;;;2.17;0.93;;;11.50;96.50;;;;;;6226848;28;20050;-79
2022/01/04 01:28:58;;;;;;;2.72;1.25;;;11.40;96.60;;;;;;6226127;28;20048;-79
2022/01/04 01:32:00;;;;;;;3.20;1.15;;;11.50;96.70;;;;;;6224852;28;20508;-78
2022/01/04 01:35:04;;;;;;;4.20;0.70;;;11.50;96.70;;;;;;6224668;28;20140;-78
2022/01/04 01:38:08;;;;;;;2.03;1.02;;;11.50;96.50;;;;;;6224895;28;20049;-79
2022/01/04 01:41:10;;;;;;;2.65;0.85;;;11.60;96.60;;;;;;6225431;28;20467;-79
2022/01/04 01:44:13;;;;;;;2.40;0.88;;;11.50;96.50;;;;;;6224871;28;20042;-78
2022/01/04 01:47:14;;;;;;;1.90;1.00;;;11.50;96.70;;;;;;6224853;28;20057;-78
2022/01/04 01:50:19;;;;;;;4.80;1.38;;;11.50;96.60;;;;;;6225265;28;20702;-78
2022/01/04 01:53:22;;;;;;;1.55;0.85;;;11.50;96.60;;;;;;6224766;28;20599;-78
2022/01/04 01:56:23;;;;;;;3.15;1.02;;;11.50;96.50;;;;;;6204989;28;20047;-78
2022/01/04 01:59:25;;;;;;;2.33;0.98;;;11.50;96.50;;;;;;6197697;28;20483;-78
2022/01/04 02:02:27;;;;;;;9.88;1.80;;;11.60;96.50;;;;;;6224385;28;20042;-78
2022/01/04 02:05:30;;;;;;;5.10;1.23;;;11.60;96.50;;;;;;6228706;28;20046;-78
2022/01/04 02:08:32;;;;;;;3.28;0.90;;;11.60;96.50;;;;;;6230223;28;20050;-79
2022/01/04 02:11:35;;;;;;;4.22;1.25;;;11.60;96.50;;;;;;6230557;28;20052;-79
2022/01/04 02:14:37;;;;;;;4.38;1.30;;;11.60;96.40;;;;;;6228473;28;20426;-78
2022/01/04 02:17:39;;;;;;;6.13;1.38;;;11.60;96.50;;;;;;6228380;28;20093;-78
2022/01/04 02:20:43;;;;;;;4.63;1.10;;;11.60;96.60;;;;;;6228388;28;20045;-78
2022/01/04 02:23:45;;;;;;;1.52;0.90;;;11.70;96.60;;;;;;6228204;28;20468;-78
2022/01/04 02:26:47;;;;;;;1.77;0.75;;;11.70;96.60;;;;;;6229557;28;20113;-78
2022/01/04 02:29:49;;;;;;;2.42;1.27;;;11.70;96.60;;;;;;6229405;28;20077;-78
2022/01/04 02:32:51;;;;;;;5.55;1.60;;;11.80;96.60;;;;;;6229123;28;20054;-79
2022/01/04 02:35:54;;;;;;;4.03;1.02;;;11.80;96.70;;;;;;6228287;28;20132;-78
2022/01/04 02:38:56;;;;;;;3.50;1.30;;;11.80;96.70;;;;;;6229707;28;20055;-78
2022/01/04 02:41:58;;;;;;;6.43;1.30;;;11.80;96.70;;;;;;6228613;28;20042;-78
2022/01/04 02:45:00;;;;;;;4.85;1.42;;;11.90;96.70;;;;;;6228722;28;20045;-78
2022/01/04 02:48:02;;;;;;;3.97;1.45;;;11.80;96.70;;;;;;6228522;28;20180;-78
2022/01/04 02:51:05;;;;;;;1.90;1.15;;;11.70;96.50;;;;;;6228697;28;20142;-78
2022/01/04 02:54:07;;;;;;;7.85;1.50;;;11.70;96.70;;;;;;6227749;28;20064;-77
2022/01/04 02:57:08;;;;;;;6.32;1.70;;;11.70;96.70;;;;;;6218881;28;20042;-78
2022/01/04 03:00:13;;;;;;;3.08;1.80;;;11.70;96.60;;;;;;6228033;28;20112;-78
2022/01/04 03:03:15;;;;;;;4.72;1.10;;;11.60;96.80;;;;;;6228842;28;20049;-78
2022/01/04 03:06:18;;;;;;;4.40;2.05;;;11.60;96.80;;;;;;6216316;28;20049;-78
2022/01/04 03:09:20;;;;;;;2.40;1.13;;;11.60;96.80;;;;;;6204117;28;20516;-78
2022/01/04 03:12:21;;;;;;;4.57;1.30;;;11.60;96.90;;;;;;6205198;28;20066;-79
2022/01/04 03:15:23;;;;;;;2.63;1.42;;;11.50;96.90;;;;;;6198841;28;20130;-78
2022/01/04 03:18:25;;;;;;;3.38;1.50;;;11.50;97.00;;;;;;6204002;28;20047;-78
2022/01/04 03:21:28;;;;;;;3.55;1.30;;;11.40;97.10;;;;;;6204009;28;20056;-78
2022/01/04 03:24:30;;;;;;;2.45;1.27;;;11.40;97.50;;;;;;6203416;28;20514;-79
2022/01/04 03:27:32;;;;;;;5.43;1.35;;;11.30;97.60;;;;;;6204847;28;20046;-80
2022/01/04 03:30:34;;;;;;;4.97;1.60;;;11.40;97.60;;;;;;6205021;28;20053;-81
2022/01/04 03:33:36;;;;;;;2.53;1.08;;;11.40;97.70;;;;;;6204897;28;20046;-80
2022/01/04 03:36:40;;;;;;;5.10;1.23;;;11.30;97.70;;;;;;6204066;28;20511;-79
2022/01/04 03:39:41;;;;;;;3.15;1.33;;;11.40;97.70;;;;;;6203422;28;20500;-79
2022/01/04 03:42:43;;;;;;;2.03;1.42;;;11.30;97.90;;;;;;6204327;28;20046;-79
2022/01/04 03:45:45;;;;;;;2.00;1.25;;;11.30;98.00;;;;;;6203313;28;20046;-80
2022/01/04 03:48:47;;;;;;;6.03;1.23;;;11.40;98.30;;;;;;6204116;28;20054;-80
2022/01/04 03:51:50;;;;;;;2.17;1.20;;;11.30;98.30;;;;;;6203126;28;20046;-80
2022/01/04 03:54:52;;;;;;;5.38;1.10;;;11.30;98.30;;;;;;6203296;28;20058;-80
2022/01/04 03:57:54;;;;;;;8.30;3.20;;;11.30;98.40;;;;;;6211994;28;20072;-80
2022/01/04 04:00:55;;;;;;;3.28;1.27;;;11.30;98.30;;;;;;6203115;28;20043;-80
2022/01/04 04:03:58;;;;;;;4.22;1.10;;;11.30;98.40;;;;;;6202878;28;20169;-80
2022/01/04 04:07:01;;;;;;;2.33;0.95;;;11.30;98.60;;;;;;6202927;28;20419;-80
2022/01/04 04:10:03;;;;;;;2.38;0.73;;;11.30;98.50;;;;;;6202737;28;20534;-80
2022/01/04 04:13:05;;;;;;;2.72;1.20;;;11.30;98.50;;;;;;6202819;28;20419;-80
2022/01/04 04:16:06;;;;;;;1.90;0.75;;;11.30;98.60;;;;;;6202825;28;20053;-80
2022/01/04 04:19:08;;;;;;;0.00;0.00;;;11.20;98.60;;;;;;6202462;28;20050;-79
2022/01/04 04:22:11;;;;;;;0.00;0.00;;;11.20;98.80;;;;;;6212761;28;20127;-79
2022/01/04 04:25:13;;;;;;;0.00;0.00;;;11.20;98.80;;;;;;6221294;28;20081;-79
2022/01/04 04:28:15;;;;;;;0.00;0.00;;;11.30;98.90;;;;;;6209102;28;20133;-80
2022/01/04 04:31:17;;;;;;;0.00;0.00;;;11.30;99.10;;;;;;6205657;28;20073;-80
2022/01/04 04:34:19;;;;;;;0.00;0.00;;;11.30;98.80;;;;;;6204075;28;20046;-79
2022/01/04 04:37:22;;;;;;;0.00;0.00;;;11.20;98.70;;;;;;6204479;28;20419;-80
2022/01/04 04:40:23;;;;;;;0.00;0.00;;;11.20;98.70;;;;;;6203811;28;20057;-80
2022/01/04 04:43:25;;;;;;;0.00;0.00;;;11.20;98.90;;;;;;6204617;28;20069;-80
2022/01/04 04:46:27;;;;;;;0.00;0.00;;;11.20;98.90;;;;;;6203780;28;20129;-80
2022/01/04 04:49:29;;;;;;;0.00;0.00;;;11.20;98.90;;;;;;6203618;28;20137;-80
2022/01/04 04:52:32;;;;;;;0.00;0.00;;;11.20;99.00;;;;;;6203105;28;20056;-80
2022/01/04 04:55:34;;;;;;;0.00;0.00;;;11.20;98.90;;;;;;6203397;28;20074;-79
2022/01/04 04:58:36;;;;;;;0.00;0.00;;;11.20;99.00;;;;;;6209372;28;20056;-79
2022/01/04 05:01:38;;;;;;;0.00;0.00;;;11.20;98.90;;;;;;6202413;28;20050;-80
2022/01/04 05:04:40;;;;;;;0.00;0.00;;;11.30;99.00;;;;;;6202293;28;20050;-80
2022/01/04 05:07:43;;;;;;;0.00;0.00;;;11.20;99.10;;;;;;6202750;28;20120;-79
2022/01/04 05:10:46;;;;;;;0.00;0.00;;;11.20;99.00;;;;;;6202804;28;20057;-79
2022/01/04 05:13:47;;;;;;;0.00;0.00;;;11.30;99.20;;;;;;6201873;28;20050;-79
2022/01/04 05:16:49;;;;;;;0.00;0.00;;;11.20;99.10;;;;;;6201562;28;20050;-79
2022/01/04 05:19:51;;;;;;;0.00;0.00;;;11.30;99.20;;;;;;6202300;28;20496;-79
2022/01/04 05:22:54;;;;;;;0.00;0.00;;;11.30;99.20;;;;;;6202503;28;20046;-80
2022/01/04 05:25:56;;;;;;;0.00;0.00;;;11.30;99.30;;;;;;6201866;28;20057;-79
2022/01/04 05:28:58;;;;;;;0.00;0.00;;;11.30;99.20;;;;;;6201752;28;20128;-79
2022/01/04 05:31:59;;;;;;;0.00;0.00;;;11.30;99.30;;;;;;6202256;28;20500;-79
2022/01/04 05:35:01;;;;;;;0.00;0.00;;;11.40;99.20;;;;;;6202938;28;20064;-79
2022/01/04 05:38:05;;;;;;;0.00;0.00;;;11.40;99.20;;;;;;6202848;28;20060;-79
2022/01/04 05:41:06;;;;;;;0.00;0.00;;;11.40;99.20;;;;;;6206735;28;20470;-80
2022/01/04 05:44:08;;;;;;;0.00;0.00;;;11.50;99.30;;;;;;6242656;23;20045;-81
2022/01/04 05:47:10;;;;;;;0.00;0.00;;;11.50;99.20;;;;;;6253867;28;20090;-82
2022/01/04 05:50:12;;;;;;;0.00;0.00;;;11.60;99.20;;;;;;6253439;28;20051;-81
2022/01/04 05:53:15;;;;;;;0.00;0.00;;;11.60;99.20;;;;;;6253010;28;20438;-81
2022/01/04 05:56:17;;;;;;;0.00;0.00;;;11.60;99.20;;;;;;6252769;28;20073;-81
2022/01/04 05:59:19;;;;;;;0.00;0.00;;;11.60;99.20;;;;;;6236431;28;20097;-80
2022/01/04 06:02:20;;;;;;;0.00;0.00;;;11.60;99.20;;;;;;6242928;28;20037;-81
2022/01/04 06:05:22;;;;;;;0.00;0.00;;;11.60;99.10;;;;;;6256727;28;20045;-83
2022/01/04 06:08:30;;;;;;;0.00;0.00;;;11.70;99.10;;;;;;6258637;28;20498;-82
2022/01/04 06:11:54;;;;;;;0.00;0.00;;;11.60;99.10;;;;;;6254230;28;20045;-82
2022/01/04 06:14:56;;;;;;;0.00;0.00;;;11.70;99.20;;;;;;6253611;28;20061;-82
2022/01/04 06:17:58;;;;;;;0.00;0.00;;;11.70;99.10;;;;;;6254131;28;20438;-83
2022/01/04 06:21:00;;;;;;;0.10;0.10;;;11.70;99.10;;;;;;6254112;28;20048;-82
2022/01/04 06:24:04;;;;;;;0.00;0.00;;;11.80;99.20;;;;;;6252640;28;20495;-82
2022/01/04 06:27:08;;;;;;;0.00;0.00;;;11.80;99.10;;;;;;6253806;28;20057;-83
2022/01/04 06:30:10;;;;;;;0.00;0.00;;;11.90;99.10;;;;;;6252443;28;20426;-81
2022/01/04 06:33:12;;;;;;;0.00;0.00;;;11.80;98.90;;;;;;6251625;28;20049;-81
2022/01/04 06:36:14;;;;;;;0.00;0.00;;;11.90;99.00;;;;;;6252395;28;20124;-81
2022/01/04 06:39:17;;;;;;;0.00;0.00;;;11.90;99.00;;;;;;6255834;28;20065;-82
2022/01/04 06:42:19;;;;;;;0.00;0.00;;;11.90;99.10;;;;;;6252910;28;20052;-82
2022/01/04 06:45:21;;;;;;;0.00;0.00;;;11.90;99.00;;;;;;6251457;28;20046;-82
2022/01/04 06:48:23;;;;;;;0.00;0.00;;;12.00;99.00;;;;;;6250786;28;20128;-81
2022/01/04 06:51:25;;;;;;;0.00;0.00;;;12.00;99.00;;;;;;6251621;28;20140;-81
2022/01/04 06:54:28;;;;;;;0.00;0.00;;;12.00;99.00;;;;;;6251207;28;20049;-81
2022/01/04 06:57:29;;;;;;;0.00;0.00;;;12.00;99.00;;;;;;6252678;28;20055;-82
2022/01/04 07:00:31;;;;;;;0.00;0.00;;;12.00;99.00;;;;;;6232007;28;20053;-81
2022/01/04 07:03:33;;;;;;;0.00;0.00;;;12.10;99.00;;;;;;6226718;28;20506;-81
2022/01/04 07:06:35;;;;;;;0.00;0.00;;;12.10;99.00;;;;;;6226389;28;20046;-81
2022/01/04 07:09:38;;;;;;;0.00;0.00;;;12.10;99.00;;;;;;6226958;28;20104;-81
2022/01/04 07:12:40;;;;;;;0.00;0.00;;;12.20;99.00;;;;;;6227145;28;20046;-82
2022/01/04 07:15:42;;;;;;;0.00;0.00;;;12.20;99.00;;;;;;6226384;28;20420;-81
2022/01/04 07:18:46;;;;;;;0.00;0.00;;;12.20;98.90;;;;;;6227129;28;20112;-81
2022/01/04 07:21:48;;;;;;;0.00;0.00;;;12.30;98.80;;;;;;6225849;28;20046;-81
2022/01/04 07:24:51;;;;;;;0.10;0.10;;;12.30;98.80;;;;;;6226526;28;20132;-82
2022/01/04 07:27:53;;;;;;;0.00;0.00;;;12.30;98.80;;;;;;6227141;28;20053;-83
2022/01/04 07:30:54;;;;;;;0.00;0.00;;;12.30;98.80;;;;;;6227974;28;20060;-83
2022/01/04 07:33:57;;;;;;;0.00;0.00;;;12.30;98.80;;;;;;6227107;28;20056;-83
2022/01/04 07:36:58;;;;;;;0.00;0.00;;;12.40;98.80;;;;;;6227687;28;20068;-82
2022/01/04 07:40:01;;;;;;;0.00;0.00;;;12.40;98.80;;;;;;6227119;28;20046;-82
2022/01/04 07:43:04;;;;;;;0.00;0.00;;;12.30;98.80;;;;;;6227691;28;20491;-82
2022/01/04 07:46:05;;;;;;;0.00;0.00;;;12.30;98.80;;;;;;6226105;28;20156;-82
2022/01/04 07:49:07;;;;;;;0.00;0.00;;;12.30;98.80;;;;;;6227074;28;20096;-82
2022/01/04 07:52:09;;;;;;;0.00;0.00;;;12.40;98.80;;;;;;6227069;28;20100;-82
2022/01/04 07:55:12;;;;;;;0.00;0.00;;;12.40;98.80;;;;;;6227413;28;20153;-81
2022/01/04 07:58:14;;;;;;;0.00;0.00;;;12.40;98.90;;;;;;6227143;28;20061;-82
2022/01/04 08:01:16;;;;;;;0.00;0.00;;;12.50;99.00;;;;;;6224991;28;20073;-82
2022/01/04 08:04:17;;;;;;;0.00;0.00;;;12.50;98.80;;;;;;6227617;28;20048;-82
2022/01/04 08:07:19;;;;;;;0.00;0.00;;;12.50;98.70;;;;;;6227742;28;20093;-82
2022/01/04 08:10:22;;;;;;;0.00;0.00;;;12.50;98.70;;;;;;6226899;28;20050;-82
2022/01/04 08:13:27;;;;;;;0.00;0.00;;;12.50;98.70;;;;;;6250773;28;20041;-82
2022/01/04 08:16:29;;;;;;;0.00;0.00;;;12.50;98.70;;;;;;6252799;28;20049;-81
2022/01/04 08:19:30;;;;;;;0.00;0.00;;;12.50;98.80;;;;;;6253397;28;20060;-82
2022/01/04 08:22:32;;;;;;;0.00;0.00;;;12.50;98.70;;;;;;6251660;28;20095;-81
2022/01/04 08:25:35;;;;;;;0.00;0.00;;;12.50;98.60;;;;;;6249951;28;20065;-82
2022/01/04 08:28:37;;;;;;;0.00;0.00;;;12.50;98.80;;;;;;6251370;28;20049;-82
2022/01/04 08:31:39;;;;;;;0.00;0.00;;;12.50;98.80;;;;;;6250975;28;20183;-83
2022/01/04 08:34:41;;;;;;;0.00;0.00;;;12.50;98.80;;;;;;6250321;28;20502;-83
2022/01/04 08:37:42;;;;;;;0.00;0.00;;;12.60;98.90;;;;;;6250379;28;20528;-82
2022/01/04 08:40:46;;;;;;;0.00;0.00;;;12.60;98.90;;;;;;6250278;28;20045;-83
2022/01/04 08:43:47;;;;;;;0.00;0.00;;;12.60;98.90;;;;;;6249243;28;20487;-83
2022/01/04 08:46:50;;;;;;;0.00;0.00;;;12.70;98.70;;;;;;6250801;28;20049;-83
2022/01/04 08:49:52;;;;;;;0.00;0.00;;;12.60;98.60;;;;;;6249740;28;20129;-82
2022/01/04 08:52:55;;;;;;;0.00;0.00;;;12.60;98.80;;;;;;6250052;28;20049;-82
2022/01/04 08:56:01;;;;;;;0.00;0.00;;;12.60;98.70;;;;;;6250230;28;20057;-82
2022/01/04 08:59:05;;;;;;;0.00;0.00;;;12.60;98.70;;;;;;6252125;28;20050;-83
2022/01/04 09:02:07;;;;;;;0.00;0.00;;;12.60;98.80;;;;;;6229294;28;20180;-83
2022/01/04 09:05:09;;;;;;;0.00;0.00;;;12.60;98.80;;;;;;6225143;28;20062;-82
2022/01/04 09:08:11;;;;;;;0.00;0.00;;;12.60;98.90;;;;;;6226246;28;20042;-83
2022/01/04 09:11:15;;;;;;;0.00;0.00;;;12.60;98.80;;;;;;6226557;28;20054;-83
2022/01/04 09:14:25;;;;;;;0.00;0.00;;;12.60;98.70;;;;;;6228894;28;20097;-83
2022/01/04 09:20:47;;;;;;;0.00;0.00;;;12.50;99.10;;;;;;6183440;28;20038;-83
2022/01/04 09:23:50;;;;;;;0.00;0.00;;;12.50;99.20;;;;;;6241995;28;20522;-84
2022/01/04 09:26:53;;;;;;;0.00;0.00;;;12.50;99.30;;;;;;6241964;28;20388;-82
2022/01/04 09:29:55;;;;;;;0.00;0.00;;;12.50;99.40;;;;;;6205410;28;20043;-83
2022/01/04 09:32:57;;;;;;;0.00;0.00;;;12.50;99.40;;;;;;6204961;28;20082;-83
2022/01/04 09:35:59;;;;;;;0.00;0.00;;;12.50;99.40;;;;;;6207189;28;20061;-83
2022/01/04 09:39:01;;;;;;;0.00;0.00;;;12.60;99.30;;;;;;6204814;28;20109;-83
2022/01/04 09:42:07;;;;;;;0.00;0.00;;;12.60;99.30;;;;;;6203995;28;20129;-83
2022/01/04 09:45:10;;;;;;;0.00;0.00;;;12.60;99.30;;;;;;6204023;28;20134;-83
2022/01/04 09:48:12;;;;;;;0.00;0.00;;;12.60;99.20;;;;;;6203392;28;20416;-86
2022/01/04 09:51:15;;;;;;;0.00;0.00;;;12.60;99.20;;;;;;6235143;28;20138;-82
2022/01/04 09:54:19;;;;;;;0.00;0.00;;;12.60;99.20;;;;;;6244762;28;20044;-84
2022/01/04 09:57:23;;;;;;;0.00;0.00;;;12.60;99.20;;;;;;6253869;28;20049;-83
2022/01/04 10:00:24;;;;;;;0.00;0.00;;;12.60;99.30;;;;;;6253312;28;20451;-83
2022/01/04 10:03:29;;;;;;;0.00;0.00;;;12.60;99.40;;;;;;6235623;28;20042;-83
2022/01/04 10:06:32;;;;;;;0.00;0.00;;;12.70;99.50;;;;;;6229917;28;20230;-83
2022/01/04 10:09:44;;;;;;;0.00;0.00;;;12.70;99.40;;;;;;6229731;28;20061;-83
2022/01/04 10:12:52;;;;;;;0.00;0.00;;;12.60;99.40;;;;;;6229212;28;20054;-82
2022/01/04 10:15:54;;;;;;;0.00;0.00;;;12.60;99.70;;;;;;6229548;28;20162;-82
2022/01/04 10:18:56;;;;;;;0.00;0.00;;;12.70;99.50;;;;;;6229214;28;20050;-84
2022/01/04 10:22:11;;;;;;;0.00;0.00;;;12.70;99.50;;;;;;6235657;28;20089;-83
2022/01/04 10:25:16;;;;;;;0.00;0.00;;;12.70;99.40;;;;;;6251060;28;20045;-83
2022/01/04 10:28:33;;;;;;;0.00;0.00;;;12.70;99.40;;;;;;6253671;28;20053;-83
2022/01/04 10:31:38;;;;;;;0.00;0.00;;;12.70;99.30;;;;;;6253599;28;20054;-83
2022/01/04 10:34:46;;;;;;;0.30;0.30;;;12.70;99.30;;;;;;6252172;28;20042;-84
2022/01/04 10:37:48;;;;;;;0.00;0.00;;;12.70;99.40;;;;;;6251967;28;20546;-84
2022/01/04 10:40:52;;;;;;;0.10;0.10;;;12.80;99.30;;;;;;6251514;28;20075;-84
2022/01/04 10:43:58;;;;;;;0.00;0.00;;;12.80;99.30;;;;;;6253272;28;20495;-83
2022/01/04 10:47:09;;;;;;;0.00;0.00;;;12.80;99.10;;;;;;6254689;28;20046;-84
2022/01/04 10:50:11;;;;;;;0.00;0.00;;;12.80;99.10;;;;;;6250266;28;20052;-84
2022/01/04 10:53:25;;;;;;;0.00;0.00;;;12.70;99.10;;;;;;6243598;28;20565;-83
2022/01/04 10:56:31;;;;;;;0.00;0.00;;;12.80;99.00;;;;;;6255316;28;20064;-83
2022/01/04 10:59:34;;;;;;;0.00;0.00;;;12.80;99.10;;;;;;6254078;28;20055;-83
2022/01/04 11:02:36;;;;;;;0.00;0.00;;;12.70;99.20;;;;;;6252515;28;20048;-83
2022/01/04 11:05:41;;;;;;;0.00;0.00;;;12.80;99.30;;;;;;6231173;28;20046;-83
2022/01/04 11:08:44;;;;;;;0.00;0.00;;;12.80;99.20;;;;;;6243232;28;20132;-84
2022/01/04 11:11:46;;;;;;;0.00;0.00;;;12.80;99.30;;;;;;6253952;28;20055;-83
2022/01/04 11:14:49;;;;;;;0.00;0.00;;;12.80;99.20;;;;;;6257137;28;20050;-83
2022/01/04 11:17:51;;;;;;;0.00;0.00;;;12.90;99.30;;;;;;6254971;28;20069;-84
2022/01/04 11:20:53;;;;;;;0.00;0.00;;;12.80;99.10;;;;;;6249397;28;20037;-83
2022/01/04 11:23:55;;;;;;;0.00;0.00;;;12.90;99.10;;;;;;6244149;28;20176;-82
2022/01/04 11:27:00;;;;;;;0.00;0.00;;;12.90;99.20;;;;;;6254216;28;20637;-83
2022/01/04 11:30:12;;;;;;;0.00;0.00;;;12.90;99.20;;;;;;6236886;28;20054;-83
2022/01/04 11:33:19;;;;;;;0.00;0.00;;;13.00;99.20;;;;;;6228979;28;20423;-84
2022/01/04 11:36:22;;;;;;;0.00;0.00;;;13.00;99.10;;;;;;6228800;28;20517;-83
2022/01/04 11:39:28;;;;;;;1.25;1.17;;;12.90;99.10;;;;;;6229610;28;20072;-83
2022/01/04 11:42:39;;;;;;;0.52;0.52;;;13.10;99.10;;;;;;6226544;28;20054;-83
2022/01/04 11:45:47;;;;;;;0.00;0.00;;;13.10;99.00;;;;;;6274901;23;20414;-79
2022/01/04 11:49:06;;;;;;;0.00;0.00;;;13.10;98.90;;;;;;6249571;28;20425;-79
2022/01/04 11:52:10;;;;;;;0.00;0.00;;;13.10;99.00;;;;;;6249893;28;20498;-78
2022/01/04 11:55:22;;;;;;;0.00;0.00;;;13.20;98.90;;;;;;6250130;28;20513;-79
2022/01/04 11:58:26;;;;;;;0.00;0.00;;;13.20;98.90;;;;;;6250696;28;20073;-79
2022/01/04 12:01:30;;;;;;;0.00;0.00;;;13.20;98.70;;;;;;6250851;28;20179;-79
2022/01/04 12:04:49;;;;;;;0.00;0.00;;;13.20;98.60;;;;;;6240162;28;20060;-79
2022/01/04 12:07:52;;;;;;;0.00;0.00;;;13.20;98.60;;;;;;6225646;28;20061;-79
2022/01/04 12:10:56;;;;;;;0.00;0.00;;;13.30;98.80;;;;;;6226008;28;20561;-78
2022/01/04 12:14:00;;;;;;;0.00;0.00;;;13.30;98.40;;;;;;6226521;28;20060;-78
2022/01/04 12:17:07;;;;;;;0.00;0.00;;;13.20;98.60;;;;;;6225562;28;20172;-78
2022/01/04 12:20:08;;;;;;;0.00;0.00;;;13.10;98.70;;;;;;6226812;28;20056;-78
2022/01/04 12:23:44;;;;;;;0.00;0.00;;;13.10;98.90;;;;;;6250011;28;20132;-79
2022/01/04 12:26:46;;;;;;;0.00;0.00;;;13.10;99.00;;;;;;6250007;28;20041;-78
2022/01/04 12:29:47;;;;;;;0.00;0.00;;;13.10;98.90;;;;;;6249140;28;20049;-79
2022/01/04 12:32:50;;;;;;;0.00;0.00;;;13.10;99.00;;;;;;6225160;28;20060;-79
2022/01/04 12:35:52;;;;;;;0.00;0.00;;;13.10;99.00;;;;;;6224679;28;20053;-78
2022/01/04 12:38:55;;;;;;;0.00;0.00;;;13.10;99.00;;;;;;6225415;28;20049;-80
2022/01/04 12:41:57;;;;;;;0.00;0.00;;;13.10;99.30;;;;;;6223911;28;20037;-78
2022/01/04 12:44:59;;;;;;;0.00;0.00;;;13.10;99.00;;;;;;6224304;28;20052;-79
2022/01/04 12:48:04;;;;;;;0.00;0.00;;;13.00;98.70;;;;;;6224325;28;20050;-79
2022/01/04 12:51:22;;;;;;;0.00;0.00;;;12.90;98.50;;;;;;6240058;28;20195;-79
2022/01/04 12:54:25;;;;;;;1.10;1.10;;;12.70;98.30;;;;;;6242512;28;20041;-79
2022/01/04 12:57:27;;;;;;;0.00;0.00;;;12.60;98.40;;;;;;6250726;28;20048;-79
2022/01/04 13:00:30;;;;;;;0.00;0.00;;;12.50;98.50;;;;;;6253172;28;20052;-79
2022/01/04 13:03:33;;;;;;;0.00;0.00;;;12.60;98.60;;;;;;6248782;28;20184;-80
2022/01/04 13:06:35;;;;;;;0.00;0.00;;;12.50;98.60;;;;;;6246444;28;20073;-79
2022/01/04 13:09:37;;;;;;;0.00;0.00;;;12.50;98.60;;;;;;6247873;28;20427;-80
2022/01/04 13:12:41;;;;;;;0.00;0.00;;;12.50;98.90;;;;;;6247405;28;20128;-78
2022/01/04 13:15:43;;;;;;;0.00;0.00;;;12.30;96.80;;;;;;6247999;28;20046;-79
2022/01/04 13:18:48;;;;;;;0.00;0.00;;;11.80;95.90;;;;;;6248727;28;20136;-79
2022/01/04 13:21:59;;;;;;;0.00;0.00;;;11.30;95.90;;;;;;6248258;28;20042;-78
2022/01/04 13:25:05;;;;;;;0.00;0.00;;;10.90;96.10;;;;;;6248097;28;20132;-79
2022/01/04 13:28:07;;;;;;;0.00;0.00;;;10.60;96.50;;;;;;6248714;28;20051;-80
2022/01/04 13:31:19;;;;;;;0.00;0.00;;;10.40;96.90;;;;;;6248368;28;20056;-79
2022/01/04 13:34:23;;;;;;;0.00;0.00;;;10.30;97.00;;;;;;6232574;28;20042;-79
2022/01/04 13:37:25;;;;;;;0.00;0.00;;;10.20;97.20;;;;;;6223593;28;20045;-79
2022/01/04 13:40:29;;;;;;;0.00;0.00;;;10.10;97.40;;;;;;6223965;28;20053;-78
2022/01/04 13:43:35;;;;;;;0.00;0.00;;;10.10;97.50;;;;;;6224234;28;20507;-78
2022/01/04 13:46:37;;;;;;;0.00;0.00;;;9.90;97.20;;;;;;6222402;28;20042;-77
2022/01/04 13:49:40;;;;;;;0.00;0.00;;;9.80;97.40;;;;;;6222406;28;20054;-79
2022/01/04 13:52:41;;;;;;;0.00;0.00;;;9.70;97.60;;;;;;6246683;28;20048;-79
2022/01/04 13:55:58;;;;;;;0.00;0.00;;;9.70;97.50;;;;;;6247174;28;20095;-79
2022/01/04 13:59:00;;;;;;;0.00;0.00;;;9.60;97.50;;;;;;6250682;28;20045;-78
2022/01/04 14:02:02;;;;;;;0.00;0.00;;;9.60;97.50;;;;;;6251872;28;20053;-79
2022/01/04 14:05:15;;;;;;;0.00;0.00;;;9.60;97.50;;;;;;6251880;28;20075;-79
2022/01/04 14:08:17;;;;;;;0.00;0.00;;;9.50;97.60;;;;;;6242833;28;20045;-78
2022/01/04 14:11:23;;;;;;;0.00;0.00;;;9.50;97.30;;;;;;6256988;28;20060;-79
2022/01/04 14:14:26;;;;;;;0.00;0.00;;;9.40;97.50;;;;;;6253279;28;20049;-79
2022/01/04 14:17:28;;;;;;;0.00;0.00;;;9.40;98.00;;;;;;6252781;28;20045;-78
2022/01/04 14:20:32;;;;;;;0.00;0.00;;;9.50;97.60;;;;;;6252676;28;20129;-79
2022/01/04 14:23:36;;;;;;;0.00;0.00;;;9.40;97.60;;;;;;6252667;28;20053;-80
2022/01/04 14:26:38;;;;;;;0.00;0.00;;;9.40;97.80;;;;;;6251069;28;20176;-78
2022/01/04 14:29:48;;;;;;;0.00;0.00;;;9.50;97.90;;;;;;6251133;28;20533;-79
2022/01/04 14:36:20;;;;;;;0.00;0.00;;;9.60;97.80;;;;;;6234001;28;20049;-78
2022/01/04 14:39:22;;;;;;;0.00;0.00;;;9.50;97.80;;;;;;6254655;28;20045;-79
2022/01/04 14:42:24;;;;;;;0.00;0.00;;;9.50;97.70;;;;;;6251290;28;20045;-80
2022/01/04 14:45:28;;;;;;;0.00;0.00;;;9.50;97.70;;;;;;6251523;28;20483;-80
2022/01/04 14:48:30;;;;;;;0.00;0.00;;;9.60;97.70;;;;;;6253822;28;20052;-79
2022/01/04 14:51:33;;;;;;;0.00;0.00;;;9.50;97.40;;;;;;6253710;28;20053;-79
2022/01/04 14:54:42;;;;;;;0.00;0.00;;;9.40;97.50;;;;;;6247895;28;20050;-79
2022/01/04 14:57:44;;;;;;;0.00;0.00;;;9.40;98.00;;;;;;6251734;28;20045;-79
2022/01/04 15:00:46;;;;;;;0.00;0.00;;;9.40;98.10;;;;;;6250536;28;20422;-79
2022/01/04 15:03:48;;;;;;;0.00;0.00;;;9.30;98.10;;;;;;6251240;28;20052;-80
2022/01/04 15:06:52;;;;;;;0.00;0.00;;;9.30;98.10;;;;;;6247365;28;20654;-80
2022/01/04 15:09:56;;;;;;;0.00;0.00;;;9.30;98.30;;;;;;6225983;28;20046;-79
2022/01/04 15:12:58;;;;;;;0.00;0.00;;;9.30;98.40;;;;;;6230493;28;20041;-79
2022/01/04 15:16:00;;;;;;;0.00;0.00;;;9.30;98.40;;;;;;6251259;28;20045;-80
2022/01/04 15:19:02;;;;;;;0.00;0.00;;;9.30;98.50;;;;;;6251429;28;20489;-78
2022/01/04 15:22:05;;;;;;;0.00;0.00;;;9.30;98.30;;;;;;6250902;28;20179;-78
2022/01/04 15:25:08;;;;;;;0.00;0.00;;;9.30;98.40;;;;;;6243061;28;20042;-79
2022/01/04 15:28:10;;;;;;;0.05;0.05;;;9.30;98.40;;;;;;6253807;28;20529;-79
2022/01/04 15:31:12;;;;;;;0.00;0.00;;;9.30;98.40;;;;;;6251485;28;20060;-82
2022/01/04 15:34:14;;;;;;;0.00;0.00;;;9.30;98.20;;;;;;6252843;28;20045;-80
2022/01/04 15:37:18;;;;;;;0.00;0.00;;;9.30;98.50;;;;;;6251248;28;20438;-82
2022/01/04 15:40:19;;;;;;;0.00;0.00;;;9.30;98.40;;;;;;6252265;28;20445;-80
2022/01/04 15:43:21;;;;;;;0.22;0.22;;;9.30;98.60;;;;;;6256884;28;20053;-81
2022/01/04 15:46:24;;;;;;;0.00;0.00;;;9.30;98.60;;;;;;6251467;28;20052;-81
2022/01/04 15:49:26;;;;;;;0.00;0.00;;;9.30;98.60;;;;;;6252681;28;20050;-80
2022/01/04 15:52:30;;;;;;;0.00;0.00;;;9.30;98.60;;;;;;6250062;28;20119;-80
2022/01/04 15:55:32;;;;;;;0.00;0.00;;;9.30;98.60;;;;;;6250400;28;20053;-80
2022/01/04 15:58:34;;;;;;;0.00;0.00;;;9.30;98.60;;;;;;6251097;28;20049;-80
2022/01/04 16:01:36;;;;;;;0.32;0.32;;;9.30;98.50;;;;;;6251315;28;20067;-81
2022/01/04 16:04:37;;;;;;;0.00;0.00;;;9.30;98.30;;;;;;6250791;28;20422;-79
2022/01/04 16:07:41;;;;;;;0.00;0.00;;;9.20;98.10;;;;;;6249281;28;20076;-79